sensor_id;sensor_type;location;lat;lon;timestamp;pressure;altitude;pressure_sealevel;temperature;humidity
47815;BME280;33579;50.058;18.130;2022-12-29T00:00:52;99295.16;;;2.35;100.00
47815;BME280;33579;50.058;18.130;2022-12-29T00:01:54;99294.16;;;2.37;100.00
47815;BME280;33579;50.058;18.130;2022-12-29T00:02:56;99294.94;;;2.39;100.00
47815;BME280;33579;50.058;18.130;2022-12-29T00:03:58;99296.38;;;2.45;100.00
47815;BME280;33579;50.058;18.130;2022-12-29T00:05:00;99289.34;;;2.47;100.00
47815;BME280;33579;50.058;18.130;2022-12-29T00:06:02;99290.03;;;2.51;100.00
47815;BME280;33579;50.058;18.130;2022-12-29T00:07:05;99295.91;;;2.55;100.00
47815;BME280;33579;50.058;18.130;2022-12-29T00:08:06;99291.47;;;2.57;100.00
47815;BME280;33579;50.058;18.130;2022-12-29T00:09:10;99292.91;;;2.62;100.00
47815;BME280;33579;50.058;18.130;2022-12-29T00:10:12;99287.28;;;2.70;100.00
47815;BME280;33579;50.058;18.130;2022-12-29T00:11:19;99279.25;;;2.75;100.00
47815;BME280;33579;50.058;18.130;2022-12-29T00:12:20;99281.00;;;2.74;100.00
47815;BME280;33579;50.058;18.130;2022-12-29T00:13:22;99284.44;;;2.75;100.00
47815;BME280;33579;50.058;18.130;2022-12-29T00:14:24;99279.25;;;2.75;100.00
47815;BME280;33579;50.058;18.130;2022-12-29T00:15:26;99282.53;;;2.78;100.00
47815;BME280;33579;50.058;18.130;2022-12-29T00:16:31;99278.00;;;2.82;100.00
47815;BME280;33579;50.058;18.130;2022-12-29T00:17:33;99276.25;;;2.83;100.00
47815;BME280;33579;50.058;18.130;2022-12-29T00:18:34;99272.78;;;2.82;100.00
47815;BME280;33579;50.058;18.130;2022-12-29T00:19:36;99266.59;;;2.85;100.00
47815;BME280;33579;50.058;18.130;2022-12-29T00:20:39;99269.94;;;2.87;100.00
47815;BME280;33579;50.058;18.130;2022-12-29T00:21:40;99265.50;;;2.89;100.00
47815;BME280;33579;50.058;18.130;2022-12-29T00:22:42;99268.22;;;2.87;100.00
47815;BME280;33579;50.058;18.130;2022-12-29T00:23:44;99265.50;;;2.89;100.00
47815;BME280;33579;50.058;18.130;2022-12-29T00:24:46;99259.38;;;2.90;100.00
47815;BME280;33579;50.058;18.130;2022-12-29T00:25:48;99266.28;;;2.91;100.00
47815;BME280;33579;50.058;18.130;2022-12-29T00:28:04;99261.66;;;2.96;100.00
47815;BME280;33579;50.058;18.130;2022-12-29T00:29:08;99263.34;;;2.97;100.00
47815;BME280;33579;50.058;18.130;2022-12-29T00:30:12;99258.72;;;3.02;100.00
47815;BME280;33579;50.058;18.130;2022-12-29T00:31:14;99265.34;;;3.08;100.00
47815;BME280;33579;50.058;18.130;2022-12-29T00:32:16;99262.66;;;3.09;100.00
47815;BME280;33579;50.058;18.130;2022-12-29T00:33:20;99265.19;;;3.11;100.00
47815;BME280;33579;50.058;18.130;2022-12-29T00:34:23;99258.91;;;3.15;100.00
47815;BME280;33579;50.058;18.130;2022-12-29T00:35:35;99253.38;;;3.21;100.00
47815;BME280;33579;50.058;18.130;2022-12-29T00:36:42;99263.47;;;3.26;100.00
47815;BME280;33579;50.058;18.130;2022-12-29T00:37:47;99263.47;;;3.26;100.00
47815;BME280;33579;50.058;18.130;2022-12-29T00:39:01;99269.34;;;3.30;100.00
47815;BME280;33579;50.058;18.130;2022-12-29T00:40:03;99271.97;;;3.30;100.00
47815;BME280;33579;50.058;18.130;2022-12-29T00:41:05;99273.63;;;3.31;100.00
47815;BME280;33579;50.058;18.130;2022-12-29T00:42:08;99272.63;;;3.33;100.00
47815;BME280;33579;50.058;18.130;2022-12-29T00:43:10;99276.66;;;3.39;100.00
47815;BME280;33579;50.058;18.130;2022-12-29T00:44:13;99282.34;;;3.46;100.00
47815;BME280;33579;50.058;18.130;2022-12-29T00:45:15;99280.50;;;3.48;100.00
47815;BME280;33579;50.058;18.130;2022-12-29T00:46:18;99283.59;;;3.55;100.00
47815;BME280;33579;50.058;18.130;2022-12-29T00:47:20;99278.88;;;3.61;100.00
47815;BME280;33579;50.058;18.130;2022-12-29T00:48:22;99287.53;;;3.62;100.00
47815;BME280;33579;50.058;18.130;2022-12-29T00:49:24;99281.41;;;3.63;100.00
47815;BME280;33579;50.058;18.130;2022-12-29T00:50:26;99285.84;;;3.61;100.00
47815;BME280;33579;50.058;18.130;2022-12-29T00:51:28;99285.00;;;3.60;100.00
47815;BME280;33579;50.058;18.130;2022-12-29T00:52:30;99288.63;;;3.58;100.00
47815;BME280;33579;50.058;18.130;2022-12-29T00:53:32;99292.31;;;3.54;100.00
47815;BME280;33579;50.058;18.130;2022-12-29T00:54:39;99293.91;;;3.56;100.00
47815;BME280;33579;50.058;18.130;2022-12-29T00:55:41;99290.31;;;3.59;100.00
47815;BME280;33579;50.058;18.130;2022-12-29T00:56:43;99291.88;;;3.61;100.00
47815;BME280;33579;50.058;18.130;2022-12-29T00:57:46;99287.59;;;3.60;100.00
47815;BME280;33579;50.058;18.130;2022-12-29T00:58:48;99291.06;;;3.61;100.00
47815;BME280;33579;50.058;18.130;2022-12-29T00:59:50;99287.44;;;3.63;100.00
47815;BME280;33579;50.058;18.130;2022-12-29T01:00:51;99290.50;;;3.70;100.00
47815;BME280;33579;50.058;18.130;2022-12-29T01:01:54;99291.78;;;3.79;100.00
47815;BME280;33579;50.058;18.130;2022-12-29T01:02:56;99297.63;;;3.83;100.00
47815;BME280;33579;50.058;18.130;2022-12-29T01:03:58;99291.41;;;3.85;100.00
47815;BME280;33579;50.058;18.130;2022-12-29T01:05:04;99289.47;;;3.89;100.00
47815;BME280;33579;50.058;18.130;2022-12-29T01:06:08;99291.81;;;3.93;100.00
47815;BME280;33579;50.058;18.130;2022-12-29T01:07:11;99294.97;;;3.99;100.00
47815;BME280;33579;50.058;18.130;2022-12-29T01:08:13;99293.97;;;4.01;100.00
47815;BME280;33579;50.058;18.130;2022-12-29T01:09:15;99281.50;;;4.06;100.00
47815;BME280;33579;50.058;18.130;2022-12-29T01:10:16;99277.22;;;4.05;100.00
47815;BME280;33579;50.058;18.130;2022-12-29T01:11:18;99275.28;;;4.09;100.00
47815;BME280;33579;50.058;18.130;2022-12-29T01:12:20;99276.03;;;4.11;100.00
47815;BME280;33579;50.058;18.130;2022-12-29T01:13:22;99276.88;;;4.12;100.00
47815;BME280;33579;50.058;18.130;2022-12-29T01:14:26;99276.69;;;4.15;100.00
47815;BME280;33579;50.058;18.130;2022-12-29T01:15:28;99285.38;;;4.15;100.00
47815;BME280;33579;50.058;18.130;2022-12-29T01:16:30;99286.19;;;4.16;100.00
47815;BME280;33579;50.058;18.130;2022-12-29T01:17:32;99281.72;;;4.18;100.00
47815;BME280;33579;50.058;18.130;2022-12-29T01:18:33;99279.97;;;4.18;100.00
47815;BME280;33579;50.058;18.130;2022-12-29T01:19:36;99280.16;;;4.15;100.00
47815;BME280;33579;50.058;18.130;2022-12-29T01:20:37;99274.63;;;4.05;100.00
47815;BME280;33579;50.058;18.130;2022-12-29T01:21:39;99273.22;;;4.00;100.00
47815;BME280;33579;50.058;18.130;2022-12-29T01:22:41;99272.59;;;3.96;100.00
47815;BME280;33579;50.058;18.130;2022-12-29T01:23:43;99272.38;;;3.85;100.00
47815;BME280;33579;50.058;18.130;2022-12-29T01:24:44;99261.19;;;3.83;100.00
47815;BME280;33579;50.058;18.130;2022-12-29T01:25:47;99262.03;;;3.83;100.00
47815;BME280;33579;50.058;18.130;2022-12-29T01:26:49;99266.50;;;3.81;100.00
47815;BME280;33579;50.058;18.130;2022-12-29T01:27:51;99267.88;;;3.72;100.00
47815;BME280;33579;50.058;18.130;2022-12-29T01:28:53;99258.53;;;3.68;100.00
47815;BME280;33579;50.058;18.130;2022-12-29T01:29:55;99259.47;;;3.67;100.00
47815;BME280;33579;50.058;18.130;2022-12-29T01:31:00;99261.16;;;3.68;100.00
47815;BME280;33579;50.058;18.130;2022-12-29T01:32:01;99250.19;;;3.63;100.00
47815;BME280;33579;50.058;18.130;2022-12-29T01:33:03;99243.81;;;3.53;100.00
47815;BME280;33579;50.058;18.130;2022-12-29T01:34:05;99241.22;;;3.53;100.00
47815;BME280;33579;50.058;18.130;2022-12-29T01:35:08;99233.41;;;3.53;100.00
47815;BME280;33579;50.058;18.130;2022-12-29T01:36:12;99238.44;;;3.56;100.00
47815;BME280;33579;50.058;18.130;2022-12-29T01:37:15;99247.28;;;3.53;100.00
47815;BME280;33579;50.058;18.130;2022-12-29T01:38:18;99241.31;;;3.51;100.00
47815;BME280;33579;50.058;18.130;2022-12-29T01:39:20;99231.56;;;3.55;100.00
47815;BME280;33579;50.058;18.130;2022-12-29T01:40:22;99239.19;;;3.58;100.00
47815;BME280;33579;50.058;18.130;2022-12-29T01:41:25;99243.19;;;3.63;100.00
47815;BME280;33579;50.058;18.130;2022-12-29T01:42:26;99234.13;;;3.71;100.00
47815;BME280;33579;50.058;18.130;2022-12-29T01:44:56;99238.47;;;3.70;100.00
47815;BME280;33579;50.058;18.130;2022-12-29T01:45:59;99244.28;;;3.75;100.00
47815;BME280;33579;50.058;18.130;2022-12-29T01:47:01;99246.13;;;3.73;100.00
47815;BME280;33579;50.058;18.130;2022-12-29T01:48:04;99245.47;;;3.70;100.00
47815;BME280;33579;50.058;18.130;2022-12-29T01:50:17;99242.94;;;3.68;100.00
47815;BME280;33579;50.058;18.130;2022-12-29T01:51:23;99233.38;;;3.69;100.00
47815;BME280;33579;50.058;18.130;2022-12-29T01:52:28;99238.47;;;3.70;100.00
47815;BME280;33579;50.058;18.130;2022-12-29T01:53:33;99224.56;;;3.71;100.00
47815;BME280;33579;50.058;18.130;2022-12-29T01:54:41;99233.47;;;3.67;100.00
47815;BME280;33579;50.058;18.130;2022-12-29T01:55:49;99241.88;;;3.56;100.00
47815;BME280;33579;50.058;18.130;2022-12-29T01:56:53;99238.63;;;3.53;100.00
47815;BME280;33579;50.058;18.130;2022-12-29T01:57:59;99237.47;;;3.42;100.00
47815;BME280;33579;50.058;18.130;2022-12-29T01:59:12;99244.19;;;3.46;100.00
47815;BME280;33579;50.058;18.130;2022-12-29T02:00:18;99241.59;;;3.46;100.00
47815;BME280;33579;50.058;18.130;2022-12-29T02:01:21;99242.16;;;3.51;100.00
47815;BME280;33579;50.058;18.130;2022-12-29T02:02:23;99236.19;;;3.49;100.00
47815;BME280;33579;50.058;18.130;2022-12-29T02:03:27;99235.72;;;3.43;100.00
47815;BME280;33579;50.058;18.130;2022-12-29T02:04:31;99229.78;;;3.41;100.00
47815;BME280;33579;50.058;18.130;2022-12-29T02:05:54;99229.09;;;3.37;100.00
47815;BME280;33579;50.058;18.130;2022-12-29T02:07:06;99238.25;;;3.28;100.00
47815;BME280;33579;50.058;18.130;2022-12-29T02:08:11;99233.13;;;3.27;100.00
47815;BME280;33579;50.058;18.130;2022-12-29T02:09:13;99231.47;;;3.26;100.00
47815;BME280;33579;50.058;18.130;2022-12-29T02:10:15;99228.13;;;3.23;100.00
47815;BME280;33579;50.058;18.130;2022-12-29T02:11:18;99225.41;;;3.25;100.00
47815;BME280;33579;50.058;18.130;2022-12-29T02:12:22;99223.47;;;3.29;100.00
47815;BME280;33579;50.058;18.130;2022-12-29T02:13:25;99221.63;;;3.31;100.00
47815;BME280;33579;50.058;18.130;2022-12-29T02:14:28;99231.78;;;3.35;100.00
47815;BME280;33579;50.058;18.130;2022-12-29T02:15:41;99231.69;;;3.37;100.00
47815;BME280;33579;50.058;18.130;2022-12-29T02:20:47;99221.41;;;3.50;100.00
47815;BME280;33579;50.058;18.130;2022-12-29T02:24:37;99221.91;;;3.57;100.00
47815;BME280;33579;50.058;18.130;2022-12-29T02:30:04;99196.22;;;3.67;100.00
47815;BME280;33579;50.058;18.130;2022-12-29T02:35:44;99186.72;;;3.65;100.00
47815;BME280;33579;50.058;18.130;2022-12-29T02:37:03;99190.16;;;3.66;100.00
47815;BME280;33579;50.058;18.130;2022-12-29T02:40:57;99177.34;;;3.63;100.00
47815;BME280;33579;50.058;18.130;2022-12-29T02:42:22;99185.69;;;3.68;100.00
47815;BME280;33579;50.058;18.130;2022-12-29T02:43:52;99192.56;;;3.69;100.00
47815;BME280;33579;50.058;18.130;2022-12-29T02:45:21;99210.69;;;3.71;100.00
47815;BME280;33579;50.058;18.130;2022-12-29T02:46:35;99215.06;;;3.70;100.00
47815;BME280;33579;50.058;18.130;2022-12-29T02:48:30;99222.78;;;3.72;100.00
47815;BME280;33579;50.058;18.130;2022-12-29T02:49:34;99216.75;;;3.71;100.00
47815;BME280;33579;50.058;18.130;2022-12-29T02:50:49;99216.84;;;3.70;100.00
47815;BME280;33579;50.058;18.130;2022-12-29T02:51:59;99211.97;;;3.63;100.00
47815;BME280;33579;50.058;18.130;2022-12-29T02:53:06;99205.22;;;3.61;100.00
47815;BME280;33579;50.058;18.130;2022-12-29T02:54:10;99208.56;;;3.63;100.00
47815;BME280;33579;50.058;18.130;2022-12-29T02:55:12;99208.56;;;3.63;100.00
47815;BME280;33579;50.058;18.130;2022-12-29T02:56:14;99224.34;;;3.60;100.00
47815;BME280;33579;50.058;18.130;2022-12-29T02:58:23;99209.81;;;3.56;100.00
47815;BME280;33579;50.058;18.130;2022-12-29T02:59:26;99210.00;;;3.53;100.00
47815;BME280;33579;50.058;18.130;2022-12-29T03:00:29;99210.75;;;3.55;100.00
47815;BME280;33579;50.058;18.130;2022-12-29T03:04:16;99206.88;;;3.62;100.00
47815;BME280;33579;50.058;18.130;2022-12-29T03:05:58;99205.22;;;3.61;100.00
47815;BME280;33579;50.058;18.130;2022-12-29T03:07:20;99201.69;;;3.62;100.00
47815;BME280;33579;50.058;18.130;2022-12-29T03:08:32;99194.63;;;3.64;100.00
47815;BME280;33579;50.058;18.130;2022-12-29T03:09:45;99201.50;;;3.65;100.00
47815;BME280;33579;50.058;18.130;2022-12-29T03:11:12;99205.03;;;3.64;100.00
47815;BME280;33579;50.058;18.130;2022-12-29T03:12:30;99206.88;;;3.62;100.00
47815;BME280;33579;50.058;18.130;2022-12-29T03:13:49;99207.63;;;3.64;100.00
47815;BME280;33579;50.058;18.130;2022-12-29T03:14:57;99204.53;;;3.57;100.00
47815;BME280;33579;50.058;18.130;2022-12-29T03:16:12;99202.75;;;3.58;100.00
47815;BME280;33579;50.058;18.130;2022-12-29T03:17:32;99202.00;;;3.56;100.00
47815;BME280;33579;50.058;18.130;2022-12-29T03:19:00;99203.06;;;3.53;100.00
47815;BME280;33579;50.058;18.130;2022-12-29T03:20:08;99196.19;;;3.52;100.00
47815;BME280;33579;50.058;18.130;2022-12-29T03:21:24;99207.31;;;3.54;100.00
47815;BME280;33579;50.058;18.130;2022-12-29T03:22:34;99203.06;;;3.53;100.00
47815;BME280;33579;50.058;18.130;2022-12-29T03:23:43;99209.25;;;3.50;100.00
47815;BME280;33579;50.058;18.130;2022-12-29T03:24:51;99208.41;;;3.50;100.00
47815;BME280;33579;50.058;18.130;2022-12-29T03:25:57;99210.28;;;3.48;100.00
47815;BME280;33579;50.058;18.130;2022-12-29T03:27:03;99208.66;;;3.45;100.00
47815;BME280;33579;50.058;18.130;2022-12-29T03:28:55;99210.38;;;3.46;100.00
47815;BME280;33579;50.058;18.130;2022-12-29T03:29:45;99202.72;;;3.43;100.00
47815;BME280;33579;50.058;18.130;2022-12-29T03:30:48;99204.41;;;3.44;100.00
47815;BME280;33579;50.058;18.130;2022-12-29T03:31:53;99200.22;;;3.42;100.00
47815;BME280;33579;50.058;18.130;2022-12-29T03:33:01;99205.50;;;3.40;100.00
47815;BME280;33579;50.058;18.130;2022-12-29T03:34:06;99204.16;;;3.33;100.00
47815;BME280;33579;50.058;18.130;2022-12-29T03:35:12;99205.75;;;3.35;100.00
47815;BME280;33579;50.058;18.130;2022-12-29T03:36:27;99201.16;;;3.41;100.00
47815;BME280;33579;50.058;18.130;2022-12-29T03:37:35;99196.88;;;3.40;100.00
47815;BME280;33579;50.058;18.130;2022-12-29T03:38:50;99198.72;;;3.37;100.00
47815;BME280;33579;50.058;18.130;2022-12-29T03:39:55;99191.16;;;3.33;100.00
47815;BME280;33579;50.058;18.130;2022-12-29T03:41:03;99185.88;;;3.34;100.00
47815;BME280;33579;50.058;18.130;2022-12-29T03:42:16;99190.69;;;3.26;100.00
47815;BME280;33579;50.058;18.130;2022-12-29T03:43:21;99193.38;;;3.25;100.00
47815;BME280;33579;50.058;18.130;2022-12-29T03:44:41;99197.72;;;3.24;100.00
47815;BME280;33579;50.058;18.130;2022-12-29T03:45:45;99190.78;;;3.25;100.00
47815;BME280;33579;50.058;18.130;2022-12-29T03:46:47;99191.72;;;3.23;100.00
47815;BME280;33579;50.058;18.130;2022-12-29T03:47:49;99183.91;;;3.23;100.00
47815;BME280;33579;50.058;18.130;2022-12-29T03:48:52;99175.94;;;3.27;100.00
47815;BME280;33579;50.058;18.130;2022-12-29T03:49:53;99176.13;;;3.23;100.00
47815;BME280;33579;50.058;18.130;2022-12-29T03:50:55;99171.72;;;3.24;100.00
47815;BME280;33579;50.058;18.130;2022-12-29T03:51:57;99172.59;;;3.25;100.00
47815;BME280;33579;50.058;18.130;2022-12-29T03:52:59;99167.19;;;3.28;100.00
47815;BME280;33579;50.058;18.130;2022-12-29T03:54:02;99169.81;;;3.28;100.00
47815;BME280;33579;50.058;18.130;2022-12-29T03:55:04;99168.69;;;3.32;100.00
47815;BME280;33579;50.058;18.130;2022-12-29T03:56:06;99173.06;;;3.31;100.00
47815;BME280;33579;50.058;18.130;2022-12-29T03:57:08;99180.13;;;3.29;100.00
47815;BME280;33579;50.058;18.130;2022-12-29T03:58:20;99181.53;;;3.35;100.00
47815;BME280;33579;50.058;18.130;2022-12-29T03:59:30;99180.50;;;3.37;100.00
47815;BME280;33579;50.058;18.130;2022-12-29T04:00:32;99181.53;;;3.35;100.00
47815;BME280;33579;50.058;18.130;2022-12-29T04:01:35;99178.94;;;3.35;100.00
47815;BME280;33579;50.058;18.130;2022-12-29T04:02:37;99181.94;;;3.27;100.00
47815;BME280;33579;50.058;18.130;2022-12-29T04:03:39;99187.75;;;3.32;100.00
47815;BME280;33579;50.058;18.130;2022-12-29T04:04:41;99189.34;;;3.35;100.00
47815;BME280;33579;50.058;18.130;2022-12-29T04:05:43;99190.34;;;3.32;100.00
47815;BME280;33579;50.058;18.130;2022-12-29T04:06:45;99185.06;;;3.34;100.00
47815;BME280;33579;50.058;18.130;2022-12-29T04:07:46;99192.50;;;3.40;100.00
47815;BME280;33579;50.058;18.130;2022-12-29T04:08:49;99191.50;;;3.43;100.00
47815;BME280;33579;50.058;18.130;2022-12-29T04:09:51;99189.38;;;3.49;100.00
47815;BME280;33579;50.058;18.130;2022-12-29T04:10:56;99191.88;;;3.51;100.00
47815;BME280;33579;50.058;18.130;2022-12-29T04:11:58;99194.13;;;3.57;100.00
47815;BME280;33579;50.058;18.130;2022-12-29T04:13:01;99192.53;;;3.55;100.00
47815;BME280;33579;50.058;18.130;2022-12-29T04:14:03;99185.94;;;3.49;100.00
47815;BME280;33579;50.058;18.130;2022-12-29T04:15:08;99187.59;;;3.50;100.00
47815;BME280;33579;50.058;18.130;2022-12-29T04:16:11;99182.41;;;3.50;100.00
47815;BME280;33579;50.058;18.130;2022-12-29T04:17:13;99184.56;;;3.58;100.00
47815;BME280;33579;50.058;18.130;2022-12-29T04:18:16;99190.53;;;3.60;100.00
47815;BME280;33579;50.058;18.130;2022-12-29T04:19:19;99182.72;;;3.60;100.00
47815;BME280;33579;50.058;18.130;2022-12-29T04:20:23;99172.88;;;3.65;100.00
47815;BME280;33579;50.058;18.130;2022-12-29T04:21:26;99167.59;;;3.67;100.00
47815;BME280;33579;50.058;18.130;2022-12-29T04:22:28;99175.47;;;3.65;100.00
47815;BME280;33579;50.058;18.130;2022-12-29T04:23:32;99174.25;;;3.56;100.00
47815;BME280;33579;50.058;18.130;2022-12-29T04:24:34;99167.47;;;3.54;100.00
47815;BME280;33579;50.058;18.130;2022-12-29T04:25:36;99156.50;;;3.48;100.00
47815;BME280;33579;50.058;18.130;2022-12-29T04:26:41;99151.19;;;3.50;100.00
47815;BME280;33579;50.058;18.130;2022-12-29T04:28:07;99154.56;;;3.52;100.00
47815;BME280;33579;50.058;18.130;2022-12-29T04:29:27;99155.31;;;3.54;100.00
47815;BME280;33579;50.058;18.130;2022-12-29T04:30:47;99158.06;;;3.51;100.00
47815;BME280;33579;50.058;18.130;2022-12-29T04:31:53;99159.00;;;3.50;100.00
47815;BME280;33579;50.058;18.130;2022-12-29T04:32:55;99152.31;;;3.46;100.00
47815;BME280;33579;50.058;18.130;2022-12-29T04:33:58;99162.97;;;3.41;100.00
47815;BME280;33579;50.058;18.130;2022-12-29T04:35:01;99158.97;;;3.35;100.00
47815;BME280;33579;50.058;18.130;2022-12-29T04:36:03;99160.72;;;3.35;100.00
47815;BME280;33579;50.058;18.130;2022-12-29T04:37:05;99157.88;;;3.40;100.00
47815;BME280;33579;50.058;18.130;2022-12-29T04:38:08;99162.88;;;3.43;100.00
47815;BME280;33579;50.058;18.130;2022-12-29T04:39:10;99167.97;;;3.44;100.00
47815;BME280;33579;50.058;18.130;2022-12-29T04:40:13;99166.22;;;3.45;100.00
47815;BME280;33579;50.058;18.130;2022-12-29T04:41:15;99161.03;;;3.45;100.00
47815;BME280;33579;50.058;18.130;2022-12-29T04:42:17;99163.63;;;3.45;100.00
47815;BME280;33579;50.058;18.130;2022-12-29T04:43:20;99165.31;;;3.46;100.00
47815;BME280;33579;50.058;18.130;2022-12-29T04:44:47;99163.44;;;3.48;100.00
47815;BME280;33579;50.058;18.130;2022-12-29T04:46:06;99153.31;;;3.43;100.00
47815;BME280;33579;50.058;18.130;2022-12-29T04:47:21;99154.16;;;3.44;100.00
47815;BME280;33579;50.058;18.130;2022-12-29T04:48:39;99143.66;;;3.45;100.00
47815;BME280;33579;50.058;18.130;2022-12-29T04:49:59;99145.97;;;3.50;100.00
47815;BME280;33579;50.058;18.130;2022-12-29T04:51:12;99143.31;;;3.51;100.00
47815;BME280;33579;50.058;18.130;2022-12-29T04:52:13;99143.03;;;3.56;100.00
47815;BME280;33579;50.058;18.130;2022-12-29T04:53:17;99135.91;;;3.60;100.00
47815;BME280;33579;50.058;18.130;2022-12-29T04:54:20;99137.09;;;3.54;100.00
47815;BME280;33579;50.058;18.130;2022-12-29T04:55:29;99137.63;;;3.45;100.00
47815;BME280;33579;50.058;18.130;2022-12-29T04:56:30;99131.88;;;3.40;100.00
47815;BME280;33579;50.058;18.130;2022-12-29T04:57:33;99122.47;;;3.37;100.00
47815;BME280;33579;50.058;18.130;2022-12-29T04:58:36;99131.34;;;3.33;100.00
47815;BME280;33579;50.058;18.130;2022-12-29T04:59:38;99134.72;;;3.35;100.00
47815;BME280;33579;50.058;18.130;2022-12-29T05:00:42;99138.25;;;3.34;100.00
47815;BME280;33579;50.058;18.130;2022-12-29T05:01:44;99134.88;;;3.32;100.00
47815;BME280;33579;50.058;18.130;2022-12-29T05:02:46;99131.53;;;3.30;100.00
47815;BME280;33579;50.058;18.130;2022-12-29T05:03:50;99126.59;;;3.25;100.00
47815;BME280;33579;50.058;18.130;2022-12-29T05:04:53;99123.94;;;3.27;100.00
47815;BME280;33579;50.058;18.130;2022-12-29T05:05:57;99126.44;;;3.28;100.00
47815;BME280;33579;50.058;18.130;2022-12-29T05:06:58;99119.00;;;3.22;100.00
47815;BME280;33579;50.058;18.130;2022-12-29T05:08:02;99133.91;;;3.18;100.00
47815;BME280;33579;50.058;18.130;2022-12-29T05:09:04;99131.16;;;3.21;100.00
47815;BME280;33579;50.058;18.130;2022-12-29T05:10:08;99134.78;;;3.19;100.00
47815;BME280;33579;50.058;18.130;2022-12-29T05:11:10;99124.44;;;3.17;100.00
47815;BME280;33579;50.058;18.130;2022-12-29T05:12:12;99125.13;;;3.21;100.00
47815;BME280;33579;50.058;18.130;2022-12-29T05:13:22;99125.88;;;3.23;100.00
47815;BME280;33579;50.058;18.130;2022-12-29T05:14:24;99119.25;;;3.17;100.00
47815;BME280;33579;50.058;18.130;2022-12-29T05:15:27;99110.63;;;3.17;100.00
47815;BME280;33579;50.058;18.130;2022-12-29T05:16:30;99109.53;;;3.21;100.00
47815;BME280;33579;50.058;18.130;2022-12-29T05:17:31;99114.47;;;3.26;100.00
47815;BME280;33579;50.058;18.130;2022-12-29T05:18:52;99112.03;;;3.22;100.00
47815;BME280;33579;50.058;18.130;2022-12-29T05:19:53;99111.94;;;3.24;100.00
47815;BME280;33579;50.058;18.130;2022-12-29T05:20:56;99109.25;;;3.26;100.00
47815;BME280;33579;50.058;18.130;2022-12-29T05:21:58;99120.59;;;3.25;100.00
47815;BME280;33579;50.058;18.130;2022-12-29T05:23:00;99127.47;;;3.26;100.00
47815;BME280;33579;50.058;18.130;2022-12-29T05:24:02;99127.34;;;3.27;100.00
47815;BME280;33579;50.058;18.130;2022-12-29T05:25:04;99135.25;;;3.26;100.00
47815;BME280;33579;50.058;18.130;2022-12-29T05:26:14;99135.25;;;3.26;100.00
47815;BME280;33579;50.058;18.130;2022-12-29T05:27:39;99129.88;;;3.29;100.00
47815;BME280;33579;50.058;18.130;2022-12-29T05:28:52;99134.31;;;3.27;100.00
47815;BME280;33579;50.058;18.130;2022-12-29T05:29:54;99133.41;;;3.28;100.00
47815;BME280;33579;50.058;18.130;2022-12-29T05:30:56;99131.72;;;3.27;100.00
47815;BME280;33579;50.058;18.130;2022-12-29T05:31:58;99129.13;;;3.27;100.00
47815;BME280;33579;50.058;18.130;2022-12-29T05:33:01;99126.53;;;3.27;100.00
47815;BME280;33579;50.058;18.130;2022-12-29T05:34:03;99127.72;;;3.21;100.00
47815;BME280;33579;50.058;18.130;2022-12-29T05:35:06;99121.50;;;3.23;100.00
47815;BME280;33579;50.058;18.130;2022-12-29T05:36:09;99118.81;;;3.25;100.00
47815;BME280;33579;50.058;18.130;2022-12-29T05:37:16;99116.38;;;3.22;100.00
47815;BME280;33579;50.058;18.130;2022-12-29T05:38:18;99123.38;;;3.21;100.00
47815;BME280;33579;50.058;18.130;2022-12-29T05:39:20;99122.34;;;3.24;100.00
47815;BME280;33579;50.058;18.130;2022-12-29T05:40:28;99119.84;;;3.22;100.00
47815;BME280;33579;50.058;18.130;2022-12-29T05:41:34;99121.25;;;3.28;100.00
47815;BME280;33579;50.058;18.130;2022-12-29T05:43:00;99126.59;;;3.25;100.00
47815;BME280;33579;50.058;18.130;2022-12-29T05:44:27;99128.19;;;3.28;100.00
47815;BME280;33579;50.058;18.130;2022-12-29T05:45:49;99132.28;;;3.32;100.00
47815;BME280;33579;50.058;18.130;2022-12-29T05:47:11;99139.34;;;3.30;100.00
47815;BME280;33579;50.058;18.130;2022-12-29T05:48:24;99133.22;;;3.31;100.00
47815;BME280;33579;50.058;18.130;2022-12-29T05:49:55;99129.78;;;3.30;100.00
47815;BME280;33579;50.058;18.130;2022-12-29T05:51:26;99129.53;;;3.35;100.00
47815;BME280;33579;50.058;18.130;2022-12-29T05:52:28;99128.75;;;3.33;100.00
47815;BME280;33579;50.058;18.130;2022-12-29T05:53:30;99131.09;;;3.37;100.00
47815;BME280;33579;50.058;18.130;2022-12-29T05:54:32;99130.16;;;3.38;100.00
47815;BME280;33579;50.058;18.130;2022-12-29T05:55:36;99126.75;;;3.38;100.00
47815;BME280;33579;50.058;18.130;2022-12-29T05:56:44;99138.44;;;3.45;100.00
47815;BME280;33579;50.058;18.130;2022-12-29T05:57:46;99127.78;;;3.50;100.00
47815;BME280;33579;50.058;18.130;2022-12-29T05:58:49;99126.56;;;3.56;100.00
47815;BME280;33579;50.058;18.130;2022-12-29T05:59:51;99119.69;;;3.55;100.00
47815;BME280;33579;50.058;18.130;2022-12-29T06:00:54;99126.69;;;3.54;100.00
47815;BME280;33579;50.058;18.130;2022-12-29T06:01:56;99121.94;;;3.46;100.00
47815;BME280;33579;50.058;18.130;2022-12-29T06:02:59;99121.16;;;3.44;100.00
47815;BME280;33579;50.058;18.130;2022-12-29T06:04:01;99115.63;;;3.50;100.00
47815;BME280;33579;50.058;18.130;2022-12-29T06:05:05;99116.56;;;3.49;100.00
47815;BME280;33579;50.058;18.130;2022-12-29T06:06:08;99112.28;;;3.48;100.00
47815;BME280;33579;50.058;18.130;2022-12-29T06:07:11;99110.75;;;3.44;100.00
47815;BME280;33579;50.058;18.130;2022-12-29T06:08:17;99107.59;;;3.39;100.00
47815;BME280;33579;50.058;18.130;2022-12-29T06:09:21;99113.75;;;3.38;100.00
47815;BME280;33579;50.058;18.130;2022-12-29T06:10:24;99124.13;;;3.38;100.00
47815;BME280;33579;50.058;18.130;2022-12-29T06:11:36;99121.06;;;3.31;100.00